Bolinas, CA (94924)

3:13 PM PST on February 28, 2015 (GMT -0800)
Woodacre Hills | Change Station
CLOSE
Current Station
Personal Weather Station
Location: Woodacre, CA
Elevation: 561 ft
Nearby Weather Stations

Elev 561 ft 38.00 °N, 122.64 °W | Updated 3 minutes ago

Partly Cloudy
Partly Cloudy
57.9 °F
Feels Like 57.9 °F
N
0.0
Wind Variable Wind from SSW
Gusts 0.0 mph

Today
High -- | Low -- °F
--% Chance of Precip.
Yesterday
High -- | Low -- °F
Precip. -- in
6:44 AM 6:03 PM
Waxing Gibbous, 80% visible
Pressure 29.81 in
Visibility 10.0 miles
Clouds Scattered Clouds 11000 ft
Dew Point 43 °F
Humidity 57%
Rainfall 0.00 in
Snow Depth Not available.
UV 3 out of 12
Pollen 7.20 out of 12
Air Quality Not available.
Flu Activity Not available.
METAR KO69 282255Z AUTO 00000KT 10SM SCT110 13/06 A2981 RMK AO1

More Conditions Fewer Conditions

Pressure 29.81 in
Visibility 10.0 miles
Clouds Scattered Clouds 11000 ft
Dew Point 43 °F
Humidity 57%
Rainfall 0.00 in
Snow Depth Not available.
UV 3 out of 12
Pollen 7.20 out of 12
Air Quality Not available.
Flu Activity Not available.
METAR KO69 282255Z AUTO 00000KT 10SM SCT110 13/06 A2981 RMK AO1

More Conditions Fewer Conditions

10-Day Weather Forecast

Almanac

Astronomy

Feb. 28, 2015 Rise Set
Actual Time
Civil Twilight
Nautical Twilight
Astronomical Twilight
Moon
Length of Visible Light
Length of Day
Tomorrow will be .
, % of the Moon is Illuminated

Today's Extremes

State Highs State Lows

Community

WunderPhotos

Upload Photos

1,801,166 photos uploaded!

WunderBlogs® & News

Nearby

Air Quality

  Air Quality AQ Index Pollutant
Not available.

Snow Depth

Station Depth Elevation

Earthquake Activity

City Distance Mag. Time & Date
Minimum magnitude displayed is 2.5.

Coastal Water Temperatures

Place Temperature

Nearby Weather Stations